Connecticut River @ Hartford, Ct

Connecticut River at Hartford
 Total Drainage Area: 10,480 sq. miles 
 Drainage Area Controlled by Corps Dams: 1,570 sq. miles (15%) 
 Warning Flow/Stage: 71,050 cfs / 16.0 feet 
 Flood Flow/Stage: 112,500 cfs / 22.0 feet 
Date Time
(Eastern)
Stage
(ft)
Flow
(cfs)
CSM
(cfs / sq. mi.)
Jan-31 10:30 pm 6.46 22,410 2.1
Jan-31 09:30 pm 6.45 22,325 2.1
Jan-31 08:30 pm 6.45 22,325 2.1
Jan-31 07:30 pm 6.47 22,495 2.2
Jan-31 06:30 pm 6.51 22,835 2.2
Jan-31 05:30 pm 6.55 23,175 2.2
Jan-31 04:30 pm 6.58 23,430 2.2
Jan-31 03:30 pm 6.61 23,685 2.3
Jan-31 02:30 pm 6.63 23,855 2.3
Jan-31 01:30 pm 6.63 23,855 2.3
Jan-31 12:30 pm 6.61 23,685 2.3
Jan-31 11:30 am 6.57 23,345 2.2
Jan-31 10:30 am 6.51 22,835 2.2
Jan-31 09:30 am 6.44 22,240 2.1
Jan-31 08:30 am 6.39 21,815 2.1
Jan-31 07:30 am 6.37 21,645 2.1
Jan-31 06:30 am 6.39 21,815 2.1
Jan-31 05:30 am 6.42 22,070 2.1
Jan-31 04:30 am 6.47 22,495 2.2
Jan-31 03:30 am 6.51 22,835 2.2
Jan-31 02:30 am 6.56 23,260 2.2
Jan-31 01:30 am 6.59 23,515 2.2
Jan-31 12:30 am 6.63 23,855 2.3
Jan-30 11:30 pm 6.64 23,940 2.3
Jan-30 10:30 pm 6.64 23,940 2.3
Report Generated February 01, 2023 03:48 am